sensor_id;sensor_type;location;lat;lon;timestamp;pressure;altitude;pressure_sealevel;temperature;humidity
42945;BME280;28584;42.636;23.294;2023-08-06T00:01:29;163015.38;;;16.73;100.00
42945;BME280;28584;42.636;23.294;2023-08-06T00:03:54;163044.91;;;16.84;100.00
42945;BME280;28584;42.636;23.294;2023-08-06T00:06:19;163079.81;;;16.97;100.00
42945;BME280;28584;42.636;23.294;2023-08-06T00:08:45;163089.22;;;17.01;100.00
42945;BME280;28584;42.636;23.294;2023-08-06T00:11:10;163059.69;;;16.90;100.00
42945;BME280;28584;42.636;23.294;2023-08-06T00:13:36;163048.91;;;16.86;100.00
42945;BME280;28584;42.636;23.294;2023-08-06T00:16:11;163046.25;;;16.85;100.00
42945;BME280;28584;42.636;23.294;2023-08-06T00:18:38;163077.13;;;16.96;100.00
42945;BME280;28584;42.636;23.294;2023-08-06T00:21:04;67539.38;;;-142.31;100.00
42945;BME280;28584;42.636;23.294;2023-08-06T00:23:29;67539.38;;;-142.31;100.00
42945;BME280;28584;42.636;23.294;2023-08-06T00:25:55;67539.38;;;-142.31;100.00
42945;BME280;28584;42.636;23.294;2023-08-06T00:28:20;67539.38;;;-142.31;100.00
42945;BME280;28584;42.636;23.294;2023-08-06T00:30:45;67539.38;;;-142.31;100.00
42945;BME280;28584;42.636;23.294;2023-08-06T00:33:11;67539.38;;;-142.31;100.00
42945;BME280;28584;42.636;23.294;2023-08-06T00:35:36;67539.38;;;-142.31;100.00
42945;BME280;28584;42.636;23.294;2023-08-06T00:38:02;67539.38;;;-142.31;100.00
42945;BME280;28584;42.636;23.294;2023-08-06T00:40:27;67539.38;;;-142.31;100.00
42945;BME280;28584;42.636;23.294;2023-08-06T00:42:55;67539.38;;;-142.31;100.00
42945;BME280;28584;42.636;23.294;2023-08-06T00:45:21;67539.38;;;-142.31;100.00
42945;BME280;28584;42.636;23.294;2023-08-06T00:47:47;67539.38;;;-142.31;100.00
42945;BME280;28584;42.636;23.294;2023-08-06T00:50:13;67539.38;;;-142.31;100.00
42945;BME280;28584;42.636;23.294;2023-08-06T00:52:38;67539.38;;;-142.31;100.00
42945;BME280;28584;42.636;23.294;2023-08-06T00:55:04;67539.38;;;-142.31;100.00
42945;BME280;28584;42.636;23.294;2023-08-06T00:57:30;67539.38;;;-142.31;100.00
42945;BME280;28584;42.636;23.294;2023-08-06T00:59:56;67539.38;;;-142.31;100.00
42945;BME280;28584;42.636;23.294;2023-08-06T01:02:21;67539.38;;;-142.31;100.00
42945;BME280;28584;42.636;23.294;2023-08-06T01:04:47;67539.38;;;-142.31;100.00
42945;BME280;28584;42.636;23.294;2023-08-06T01:15:28;67539.38;;;-142.31;100.00
42945;BME280;28584;42.636;23.294;2023-08-06T01:17:54;67539.38;;;-142.31;100.00
42945;BME280;28584;42.636;23.294;2023-08-06T01:20:20;67539.38;;;-142.31;100.00
42945;BME280;28584;42.636;23.294;2023-08-06T01:22:45;67539.38;;;-142.31;100.00
42945;BME280;28584;42.636;23.294;2023-08-06T01:25:15;67539.38;;;-142.31;100.00
42945;BME280;28584;42.636;23.294;2023-08-06T01:27:44;67539.38;;;-142.31;100.00
42945;BME280;28584;42.636;23.294;2023-08-06T01:30:23;67539.38;;;-142.31;100.00
42945;BME280;28584;42.636;23.294;2023-08-06T01:32:54;67539.38;;;-142.31;100.00
42945;BME280;28584;42.636;23.294;2023-08-06T01:35:25;67539.38;;;-142.31;100.00
42945;BME280;28584;42.636;23.294;2023-08-06T01:37:52;67539.38;;;-142.31;100.00
42945;BME280;28584;42.636;23.294;2023-08-06T01:40:17;67539.38;;;-142.31;100.00
42945;BME280;28584;42.636;23.294;2023-08-06T01:42:42;67539.38;;;-142.31;100.00
42945;BME280;28584;42.636;23.294;2023-08-06T01:45:08;67539.38;;;-142.31;100.00
42945;BME280;28584;42.636;23.294;2023-08-06T01:47:34;67539.38;;;-142.31;100.00
42945;BME280;28584;42.636;23.294;2023-08-06T01:50:00;67539.38;;;-142.31;100.00
42945;BME280;28584;42.636;23.294;2023-08-06T01:52:26;67539.38;;;-142.31;100.00
42945;BME280;28584;42.636;23.294;2023-08-06T01:54:51;67539.38;;;-142.31;100.00
42945;BME280;28584;42.636;23.294;2023-08-06T01:57:17;67539.38;;;-142.31;100.00
42945;BME280;28584;42.636;23.294;2023-08-06T01:59:42;67539.38;;;-142.31;100.00
42945;BME280;28584;42.636;23.294;2023-08-06T02:02:08;67539.38;;;-142.31;100.00
42945;BME280;28584;42.636;23.294;2023-08-06T02:04:33;67539.38;;;-142.31;100.00
42945;BME280;28584;42.636;23.294;2023-08-06T02:06:59;67539.38;;;-142.31;100.00
42945;BME280;28584;42.636;23.294;2023-08-06T02:09:24;67539.38;;;-142.31;100.00
42945;BME280;28584;42.636;23.294;2023-08-06T02:11:49;67539.38;;;-142.31;100.00
42945;BME280;28584;42.636;23.294;2023-08-06T02:14:15;67539.38;;;-142.31;100.00
42945;BME280;28584;42.636;23.294;2023-08-06T02:16:40;67539.38;;;-142.31;100.00
42945;BME280;28584;42.636;23.294;2023-08-06T02:19:06;67539.38;;;-142.31;100.00
42945;BME280;28584;42.636;23.294;2023-08-06T02:21:31;67539.38;;;-142.31;100.00
42945;BME280;28584;42.636;23.294;2023-08-06T02:23:56;67539.38;;;-142.31;100.00
42945;BME280;28584;42.636;23.294;2023-08-06T02:26:22;67539.38;;;-142.31;100.00
42945;BME280;28584;42.636;23.294;2023-08-06T02:28:47;67539.38;;;-142.31;100.00
42945;BME280;28584;42.636;23.294;2023-08-06T02:31:12;67539.38;;;-142.31;100.00
42945;BME280;28584;42.636;23.294;2023-08-06T02:33:38;67539.38;;;-142.31;100.00
42945;BME280;28584;42.636;23.294;2023-08-06T02:36:04;67539.38;;;-142.31;100.00
42945;BME280;28584;42.636;23.294;2023-08-06T02:38:30;67539.38;;;-142.31;100.00
42945;BME280;28584;42.636;23.294;2023-08-06T02:40:56;67539.38;;;-142.31;100.00
42945;BME280;28584;42.636;23.294;2023-08-06T02:43:21;67539.38;;;-142.31;100.00
42945;BME280;28584;42.636;23.294;2023-08-06T02:45:47;67539.38;;;-142.31;100.00
42945;BME280;28584;42.636;23.294;2023-08-06T02:48:12;67539.38;;;-142.31;100.00
42945;BME280;28584;42.636;23.294;2023-08-06T02:50:39;67539.38;;;-142.31;100.00
42945;BME280;28584;42.636;23.294;2023-08-06T02:53:08;67539.38;;;-142.31;100.00
42945;BME280;28584;42.636;23.294;2023-08-06T02:55:34;67539.38;;;-142.31;100.00
42945;BME280;28584;42.636;23.294;2023-08-06T02:58:01;67539.38;;;-142.31;100.00
42945;BME280;28584;42.636;23.294;2023-08-06T03:00:26;67539.38;;;-142.31;100.00
42945;BME280;28584;42.636;23.294;2023-08-06T03:02:53;67539.38;;;-142.31;100.00
42945;BME280;28584;42.636;23.294;2023-08-06T03:05:18;67539.38;;;-142.31;100.00
42945;BME280;28584;42.636;23.294;2023-08-06T03:07:44;67539.38;;;-142.31;100.00
42945;BME280;28584;42.636;23.294;2023-08-06T03:10:09;67539.38;;;-142.31;100.00
42945;BME280;28584;42.636;23.294;2023-08-06T03:12:35;67539.38;;;-142.31;100.00
42945;BME280;28584;42.636;23.294;2023-08-06T03:15:00;67539.38;;;-142.31;100.00
42945;BME280;28584;42.636;23.294;2023-08-06T03:17:25;67539.38;;;-142.31;100.00
42945;BME280;28584;42.636;23.294;2023-08-06T03:19:51;67539.38;;;-142.31;100.00
42945;BME280;28584;42.636;23.294;2023-08-06T03:22:16;67539.38;;;-142.31;100.00
42945;BME280;28584;42.636;23.294;2023-08-06T03:24:42;67539.38;;;-142.31;100.00
42945;BME280;28584;42.636;23.294;2023-08-06T03:27:07;67539.38;;;-142.31;100.00
42945;BME280;28584;42.636;23.294;2023-08-06T03:29:33;67539.38;;;-142.31;100.00
42945;BME280;28584;42.636;23.294;2023-08-06T03:31:58;67539.38;;;-142.31;100.00
42945;BME280;28584;42.636;23.294;2023-08-06T03:34:23;67539.38;;;-142.31;100.00
42945;BME280;28584;42.636;23.294;2023-08-06T03:36:49;67539.38;;;-142.31;100.00
42945;BME280;28584;42.636;23.294;2023-08-06T03:39:14;67539.38;;;-142.31;100.00
42945;BME280;28584;42.636;23.294;2023-08-06T03:41:40;67539.38;;;-142.31;100.00
42945;BME280;28584;42.636;23.294;2023-08-06T03:44:05;67539.38;;;-142.31;100.00
42945;BME280;28584;42.636;23.294;2023-08-06T03:46:31;67539.38;;;-142.31;100.00
42945;BME280;28584;42.636;23.294;2023-08-06T03:49:00;67539.38;;;-142.31;100.00
42945;BME280;28584;42.636;23.294;2023-08-06T03:51:25;67539.38;;;-142.31;100.00
42945;BME280;28584;42.636;23.294;2023-08-06T03:53:51;67539.38;;;-142.31;100.00
42945;BME280;28584;42.636;23.294;2023-08-06T03:56:16;67539.38;;;-142.31;100.00
42945;BME280;28584;42.636;23.294;2023-08-06T03:58:42;67539.38;;;-142.31;100.00
42945;BME280;28584;42.636;23.294;2023-08-06T04:01:07;67539.38;;;-142.31;100.00
42945;BME280;28584;42.636;23.294;2023-08-06T04:03:33;67539.38;;;-142.31;100.00
42945;BME280;28584;42.636;23.294;2023-08-06T04:05:58;67539.38;;;-142.31;100.00
42945;BME280;28584;42.636;23.294;2023-08-06T04:08:24;67539.38;;;-142.31;100.00
42945;BME280;28584;42.636;23.294;2023-08-06T04:10:51;67539.38;;;-142.31;100.00
42945;BME280;28584;42.636;23.294;2023-08-06T04:13:16;67539.38;;;-142.31;100.00
42945;BME280;28584;42.636;23.294;2023-08-06T04:15:42;67539.38;;;-142.31;100.00
42945;BME280;28584;42.636;23.294;2023-08-06T04:18:07;67539.38;;;-142.31;100.00
42945;BME280;28584;42.636;23.294;2023-08-06T04:20:32;67539.38;;;-142.31;100.00
42945;BME280;28584;42.636;23.294;2023-08-06T04:22:58;67539.38;;;-142.31;100.00
42945;BME280;28584;42.636;23.294;2023-08-06T04:25:23;67539.38;;;-142.31;100.00
42945;BME280;28584;42.636;23.294;2023-08-06T04:27:49;67539.38;;;-142.31;100.00
42945;BME280;28584;42.636;23.294;2023-08-06T04:30:14;67539.38;;;-142.31;100.00
42945;BME280;28584;42.636;23.294;2023-08-06T04:32:40;67539.38;;;-142.31;100.00
42945;BME280;28584;42.636;23.294;2023-08-06T04:35:05;67539.38;;;-142.31;100.00
42945;BME280;28584;42.636;23.294;2023-08-06T04:37:31;67539.38;;;-142.31;100.00
42945;BME280;28584;42.636;23.294;2023-08-06T04:39:56;67539.38;;;-142.31;100.00
42945;BME280;28584;42.636;23.294;2023-08-06T04:42:22;67539.38;;;-142.31;100.00
42945;BME280;28584;42.636;23.294;2023-08-06T04:44:47;67539.38;;;-142.31;100.00
42945;BME280;28584;42.636;23.294;2023-08-06T04:47:12;67539.38;;;-142.31;100.00
42945;BME280;28584;42.636;23.294;2023-08-06T04:49:38;67539.38;;;-142.31;100.00
42945;BME280;28584;42.636;23.294;2023-08-06T04:52:04;67539.38;;;-142.31;100.00
42945;BME280;28584;42.636;23.294;2023-08-06T04:54:29;67539.38;;;-142.31;100.00
42945;BME280;28584;42.636;23.294;2023-08-06T04:56:55;67539.38;;;-142.31;100.00
42945;BME280;28584;42.636;23.294;2023-08-06T04:59:20;67539.38;;;-142.31;100.00
42945;BME280;28584;42.636;23.294;2023-08-06T05:01:45;67539.38;;;-142.31;100.00
42945;BME280;28584;42.636;23.294;2023-08-06T05:04:11;67539.38;;;-142.31;100.00
42945;BME280;28584;42.636;23.294;2023-08-06T05:06:36;67539.38;;;-142.31;100.00
42945;BME280;28584;42.636;23.294;2023-08-06T05:09:03;67539.38;;;-142.31;100.00
42945;BME280;28584;42.636;23.294;2023-08-06T05:11:29;67539.38;;;-142.31;100.00
42945;BME280;28584;42.636;23.294;2023-08-06T05:13:55;67539.38;;;-142.31;100.00
42945;BME280;28584;42.636;23.294;2023-08-06T05:16:20;67539.38;;;-142.31;100.00
42945;BME280;28584;42.636;23.294;2023-08-06T05:18:46;67539.38;;;-142.31;100.00
42945;BME280;28584;42.636;23.294;2023-08-06T05:21:11;67539.38;;;-142.31;100.00
42945;BME280;28584;42.636;23.294;2023-08-06T05:23:37;67539.38;;;-142.31;100.00
42945;BME280;28584;42.636;23.294;2023-08-06T05:26:02;67539.38;;;-142.31;100.00
42945;BME280;28584;42.636;23.294;2023-08-06T05:28:28;67539.38;;;-142.31;100.00
42945;BME280;28584;42.636;23.294;2023-08-06T05:30:53;67539.38;;;-142.31;100.00
42945;BME280;28584;42.636;23.294;2023-08-06T05:33:18;67539.38;;;-142.31;100.00
42945;BME280;28584;42.636;23.294;2023-08-06T05:35:44;67539.38;;;-142.31;100.00
42945;BME280;28584;42.636;23.294;2023-08-06T05:38:10;67539.38;;;-142.31;100.00
42945;BME280;28584;42.636;23.294;2023-08-06T05:40:36;67539.38;;;-142.31;100.00
42945;BME280;28584;42.636;23.294;2023-08-06T05:43:01;67539.38;;;-142.31;100.00
42945;BME280;28584;42.636;23.294;2023-08-06T05:45:27;67539.38;;;-142.31;100.00
42945;BME280;28584;42.636;23.294;2023-08-06T05:47:52;67539.38;;;-142.31;100.00
42945;BME280;28584;42.636;23.294;2023-08-06T05:50:19;67539.38;;;-142.31;100.00
42945;BME280;28584;42.636;23.294;2023-08-06T05:52:45;67539.38;;;-142.31;100.00
42945;BME280;28584;42.636;23.294;2023-08-06T05:55:10;67539.38;;;-142.31;100.00
42945;BME280;28584;42.636;23.294;2023-08-06T05:57:36;67539.38;;;-142.31;100.00
42945;BME280;28584;42.636;23.294;2023-08-06T06:00:02;67539.38;;;-142.31;100.00
42945;BME280;28584;42.636;23.294;2023-08-06T06:02:28;67539.38;;;-142.31;100.00
42945;BME280;28584;42.636;23.294;2023-08-06T06:04:53;67539.38;;;-142.31;100.00
42945;BME280;28584;42.636;23.294;2023-08-06T06:07:19;67539.38;;;-142.31;100.00
42945;BME280;28584;42.636;23.294;2023-08-06T06:09:44;67539.38;;;-142.31;100.00
42945;BME280;28584;42.636;23.294;2023-08-06T06:12:10;67539.38;;;-142.31;100.00
42945;BME280;28584;42.636;23.294;2023-08-06T06:14:35;67539.38;;;-142.31;100.00
42945;BME280;28584;42.636;23.294;2023-08-06T06:17:00;67539.38;;;-142.31;100.00
42945;BME280;28584;42.636;23.294;2023-08-06T06:19:26;67539.38;;;-142.31;100.00
42945;BME280;28584;42.636;23.294;2023-08-06T06:21:52;67539.38;;;-142.31;100.00
42945;BME280;28584;42.636;23.294;2023-08-06T06:24:18;67539.38;;;-142.31;100.00
42945;BME280;28584;42.636;23.294;2023-08-06T06:26:43;67539.38;;;-142.31;100.00
42945;BME280;28584;42.636;23.294;2023-08-06T06:29:09;67539.38;;;-142.31;100.00
42945;BME280;28584;42.636;23.294;2023-08-06T06:31:34;67539.38;;;-142.31;100.00
42945;BME280;28584;42.636;23.294;2023-08-06T06:34:00;67539.38;;;-142.31;100.00
42945;BME280;28584;42.636;23.294;2023-08-06T06:36:25;67539.38;;;-142.31;100.00
42945;BME280;28584;42.636;23.294;2023-08-06T06:38:50;67539.38;;;-142.31;100.00
42945;BME280;28584;42.636;23.294;2023-08-06T06:41:16;67539.38;;;-142.31;100.00
42945;BME280;28584;42.636;23.294;2023-08-06T06:43:41;67539.38;;;-142.31;100.00
42945;BME280;28584;42.636;23.294;2023-08-06T06:46:07;67539.38;;;-142.31;100.00
42945;BME280;28584;42.636;23.294;2023-08-06T06:48:33;67539.38;;;-142.31;100.00
42945;BME280;28584;42.636;23.294;2023-08-06T06:50:58;67539.38;;;-142.31;100.00
42945;BME280;28584;42.636;23.294;2023-08-06T06:53:24;67539.38;;;-142.31;100.00
42945;BME280;28584;42.636;23.294;2023-08-06T06:55:56;67539.38;;;-142.31;100.00
42945;BME280;28584;42.636;23.294;2023-08-06T06:58:22;67539.38;;;-142.31;100.00
42945;BME280;28584;42.636;23.294;2023-08-06T07:00:48;67539.38;;;-142.31;100.00
42945;BME280;28584;42.636;23.294;2023-08-06T07:03:14;67539.38;;;-142.31;100.00
42945;BME280;28584;42.636;23.294;2023-08-06T07:05:40;67539.38;;;-142.31;100.00
42945;BME280;28584;42.636;23.294;2023-08-06T07:08:05;67539.38;;;-142.31;100.00
42945;BME280;28584;42.636;23.294;2023-08-06T07:10:31;67539.38;;;-142.31;100.00
42945;BME280;28584;42.636;23.294;2023-08-06T07:12:56;67539.38;;;-142.31;100.00
42945;BME280;28584;42.636;23.294;2023-08-06T07:15:22;67539.38;;;-142.31;100.00
42945;BME280;28584;42.636;23.294;2023-08-06T07:17:47;67539.38;;;-142.31;100.00
42945;BME280;28584;42.636;23.294;2023-08-06T07:20:12;67539.38;;;-142.31;100.00
42945;BME280;28584;42.636;23.294;2023-08-06T07:22:38;67539.38;;;-142.31;100.00
42945;BME280;28584;42.636;23.294;2023-08-06T07:25:04;67539.38;;;-142.31;100.00
42945;BME280;28584;42.636;23.294;2023-08-06T07:27:29;67539.38;;;-142.31;100.00
42945;BME280;28584;42.636;23.294;2023-08-06T07:29:55;67539.38;;;-142.31;100.00
42945;BME280;28584;42.636;23.294;2023-08-06T07:32:20;67539.38;;;-142.31;100.00
42945;BME280;28584;42.636;23.294;2023-08-06T07:34:45;67539.38;;;-142.31;100.00
42945;BME280;28584;42.636;23.294;2023-08-06T07:37:11;67539.38;;;-142.31;100.00
42945;BME280;28584;42.636;23.294;2023-08-06T07:39:36;67539.38;;;-142.31;100.00
42945;BME280;28584;42.636;23.294;2023-08-06T07:42:04;67539.38;;;-142.31;100.00
42945;BME280;28584;42.636;23.294;2023-08-06T07:44:32;67539.38;;;-142.31;100.00
42945;BME280;28584;42.636;23.294;2023-08-06T07:46:57;67539.38;;;-142.31;100.00
42945;BME280;28584;42.636;23.294;2023-08-06T07:49:23;67539.38;;;-142.31;100.00
42945;BME280;28584;42.636;23.294;2023-08-06T07:51:48;67539.38;;;-142.31;100.00
42945;BME280;28584;42.636;23.294;2023-08-06T07:54:14;67539.38;;;-142.31;100.00
42945;BME280;28584;42.636;23.294;2023-08-06T07:56:39;67539.38;;;-142.31;100.00
42945;BME280;28584;42.636;23.294;2023-08-06T07:59:05;67539.38;;;-142.31;100.00
42945;BME280;28584;42.636;23.294;2023-08-06T08:01:30;67539.38;;;-142.31;100.00
42945;BME280;28584;42.636;23.294;2023-08-06T08:03:56;67539.38;;;-142.31;100.00
42945;BME280;28584;42.636;23.294;2023-08-06T08:06:21;67539.38;;;-142.31;100.00
42945;BME280;28584;42.636;23.294;2023-08-06T08:08:48;67539.38;;;-142.31;100.00
42945;BME280;28584;42.636;23.294;2023-08-06T08:11:13;67539.38;;;-142.31;100.00
42945;BME280;28584;42.636;23.294;2023-08-06T08:13:40;67539.38;;;-142.31;100.00
42945;BME280;28584;42.636;23.294;2023-08-06T08:16:05;67539.38;;;-142.31;100.00
42945;BME280;28584;42.636;23.294;2023-08-06T08:18:32;67539.38;;;-142.31;100.00
42945;BME280;28584;42.636;23.294;2023-08-06T08:20:57;67539.38;;;-142.31;100.00
42945;BME280;28584;42.636;23.294;2023-08-06T08:23:23;67539.38;;;-142.31;100.00
42945;BME280;28584;42.636;23.294;2023-08-06T08:25:48;67539.38;;;-142.31;100.00
42945;BME280;28584;42.636;23.294;2023-08-06T08:28:13;67539.38;;;-142.31;100.00
42945;BME280;28584;42.636;23.294;2023-08-06T08:30:40;67539.38;;;-142.31;100.00
42945;BME280;28584;42.636;23.294;2023-08-06T08:33:06;67539.38;;;-142.31;100.00
42945;BME280;28584;42.636;23.294;2023-08-06T08:35:33;67539.38;;;-142.31;100.00
42945;BME280;28584;42.636;23.294;2023-08-06T08:37:59;67539.38;;;-142.31;100.00
42945;BME280;28584;42.636;23.294;2023-08-06T08:40:29;67539.38;;;-142.31;100.00
42945;BME280;28584;42.636;23.294;2023-08-06T08:42:57;67539.38;;;-142.31;100.00
42945;BME280;28584;42.636;23.294;2023-08-06T08:45:26;67539.38;;;-142.31;100.00
42945;BME280;28584;42.636;23.294;2023-08-06T08:47:53;67539.38;;;-142.31;100.00
42945;BME280;28584;42.636;23.294;2023-08-06T08:50:19;67539.38;;;-142.31;100.00
42945;BME280;28584;42.636;23.294;2023-08-06T08:52:45;67539.38;;;-142.31;100.00
42945;BME280;28584;42.636;23.294;2023-08-06T08:55:12;67539.38;;;-142.31;100.00
42945;BME280;28584;42.636;23.294;2023-08-06T08:57:39;67539.38;;;-142.31;100.00
42945;BME280;28584;42.636;23.294;2023-08-06T09:00:05;67539.38;;;-142.31;100.00
42945;BME280;28584;42.636;23.294;2023-08-06T09:02:32;67539.38;;;-142.31;100.00
42945;BME280;28584;42.636;23.294;2023-08-06T09:04:59;67539.38;;;-142.31;100.00
42945;BME280;28584;42.636;23.294;2023-08-06T09:07:29;67539.38;;;-142.31;100.00
42945;BME280;28584;42.636;23.294;2023-08-06T09:09:57;67539.38;;;-142.31;100.00
42945;BME280;28584;42.636;23.294;2023-08-06T09:12:24;67539.38;;;-142.31;100.00
42945;BME280;28584;42.636;23.294;2023-08-06T09:14:51;67539.38;;;-142.31;100.00
42945;BME280;28584;42.636;23.294;2023-08-06T09:17:16;67539.38;;;-142.31;100.00
42945;BME280;28584;42.636;23.294;2023-08-06T09:19:45;67539.38;;;-142.31;100.00
42945;BME280;28584;42.636;23.294;2023-08-06T09:22:13;67539.38;;;-142.31;100.00
42945;BME280;28584;42.636;23.294;2023-08-06T09:24:42;67539.38;;;-142.31;100.00
42945;BME280;28584;42.636;23.294;2023-08-06T09:27:14;67539.38;;;-142.31;100.00
42945;BME280;28584;42.636;23.294;2023-08-06T09:29:44;67539.38;;;-142.31;100.00
42945;BME280;28584;42.636;23.294;2023-08-06T09:32:11;67539.38;;;-142.31;100.00
42945;BME280;28584;42.636;23.294;2023-08-06T09:34:39;67539.38;;;-142.31;100.00
42945;BME280;28584;42.636;23.294;2023-08-06T09:37:04;67539.38;;;-142.31;100.00
42945;BME280;28584;42.636;23.294;2023-08-06T09:39:30;67539.38;;;-142.31;100.00
42945;BME280;28584;42.636;23.294;2023-08-06T09:41:57;67539.38;;;-142.31;100.00
42945;BME280;28584;42.636;23.294;2023-08-06T09:44:25;67539.38;;;-142.31;100.00
42945;BME280;28584;42.636;23.294;2023-08-06T09:46:57;67539.38;;;-142.31;100.00
42945;BME280;28584;42.636;23.294;2023-08-06T09:49:40;67539.38;;;-142.31;100.00
42945;BME280;28584;42.636;23.294;2023-08-06T09:52:11;67539.38;;;-142.31;100.00
42945;BME280;28584;42.636;23.294;2023-08-06T09:54:37;67539.38;;;-142.31;100.00
42945;BME280;28584;42.636;23.294;2023-08-06T09:57:02;67539.38;;;-142.31;100.00
42945;BME280;28584;42.636;23.294;2023-08-06T09:59:29;67539.38;;;-142.31;100.00
42945;BME280;28584;42.636;23.294;2023-08-06T10:01:55;67539.38;;;-142.31;100.00
42945;BME280;28584;42.636;23.294;2023-08-06T10:04:21;67539.38;;;-142.31;100.00
42945;BME280;28584;42.636;23.294;2023-08-06T10:06:47;67539.38;;;-142.31;100.00
42945;BME280;28584;42.636;23.294;2023-08-06T10:09:13;67539.38;;;-142.31;100.00
42945;BME280;28584;42.636;23.294;2023-08-06T10:11:39;67539.38;;;-142.31;100.00
42945;BME280;28584;42.636;23.294;2023-08-06T10:14:11;67539.38;;;-142.31;100.00
42945;BME280;28584;42.636;23.294;2023-08-06T10:16:38;67539.38;;;-142.31;100.00
42945;BME280;28584;42.636;23.294;2023-08-06T10:19:05;67539.38;;;-142.31;100.00
42945;BME280;28584;42.636;23.294;2023-08-06T10:21:32;67539.38;;;-142.31;100.00
42945;BME280;28584;42.636;23.294;2023-08-06T10:23:58;67539.38;;;-142.31;100.00
42945;BME280;28584;42.636;23.294;2023-08-06T10:26:29;67539.38;;;-142.31;100.00
42945;BME280;28584;42.636;23.294;2023-08-06T10:28:55;67539.38;;;-142.31;100.00
42945;BME280;28584;42.636;23.294;2023-08-06T10:31:53;67539.38;;;-142.31;100.00
42945;BME280;28584;42.636;23.294;2023-08-06T10:34:19;67539.38;;;-142.31;100.00
42945;BME280;28584;42.636;23.294;2023-08-06T10:36:45;67539.38;;;-142.31;100.00
42945;BME280;28584;42.636;23.294;2023-08-06T10:39:13;67539.38;;;-142.31;100.00
42945;BME280;28584;42.636;23.294;2023-08-06T10:41:42;67539.38;;;-142.31;100.00
42945;BME280;28584;42.636;23.294;2023-08-06T10:44:08;67539.38;;;-142.31;100.00
42945;BME280;28584;42.636;23.294;2023-08-06T10:46:35;67539.38;;;-142.31;100.00
42945;BME280;28584;42.636;23.294;2023-08-06T10:49:02;67539.38;;;-142.31;100.00
42945;BME280;28584;42.636;23.294;2023-08-06T10:51:27;67539.38;;;-142.31;100.00
42945;BME280;28584;42.636;23.294;2023-08-06T10:53:53;67539.38;;;-142.31;100.00
42945;BME280;28584;42.636;23.294;2023-08-06T10:56:21;67539.38;;;-142.31;100.00
42945;BME280;28584;42.636;23.294;2023-08-06T10:58:53;67539.38;;;-142.31;100.00
42945;BME280;28584;42.636;23.294;2023-08-06T11:01:19;67539.38;;;-142.31;100.00
42945;BME280;28584;42.636;23.294;2023-08-06T11:03:46;67539.38;;;-142.31;100.00
42945;BME280;28584;42.636;23.294;2023-08-06T11:06:19;67539.38;;;-142.31;100.00
42945;BME280;28584;42.636;23.294;2023-08-06T11:08:51;67539.38;;;-142.31;100.00
42945;BME280;28584;42.636;23.294;2023-08-06T11:11:17;67539.38;;;-142.31;100.00
42945;BME280;28584;42.636;23.294;2023-08-06T11:13:47;67539.38;;;-142.31;100.00
42945;BME280;28584;42.636;23.294;2023-08-06T11:16:22;67539.38;;;-142.31;100.00
42945;BME280;28584;42.636;23.294;2023-08-06T11:18:50;67539.38;;;-142.31;100.00
42945;BME280;28584;42.636;23.294;2023-08-06T11:21:19;67539.38;;;-142.31;100.00
42945;BME280;28584;42.636;23.294;2023-08-06T11:23:44;67539.38;;;-142.31;100.00
42945;BME280;28584;42.636;23.294;2023-08-06T11:26:10;67539.38;;;-142.31;100.00
42945;BME280;28584;42.636;23.294;2023-08-06T11:28:35;67539.38;;;-142.31;100.00
42945;BME280;28584;42.636;23.294;2023-08-06T11:31:00;67539.38;;;-142.31;100.00
42945;BME280;28584;42.636;23.294;2023-08-06T11:33:28;67539.38;;;-142.31;100.00
42945;BME280;28584;42.636;23.294;2023-08-06T11:35:57;67539.38;;;-142.31;100.00
42945;BME280;28584;42.636;23.294;2023-08-06T11:38:29;67539.38;;;-142.31;100.00
42945;BME280;28584;42.636;23.294;2023-08-06T11:40:56;67539.38;;;-142.31;100.00
42945;BME280;28584;42.636;23.294;2023-08-06T11:43:21;67539.38;;;-142.31;100.00
42945;BME280;28584;42.636;23.294;2023-08-06T11:45:48;67539.38;;;-142.31;100.00
42945;BME280;28584;42.636;23.294;2023-08-06T11:48:14;67539.38;;;-142.31;100.00
42945;BME280;28584;42.636;23.294;2023-08-06T11:50:40;67539.38;;;-142.31;100.00
42945;BME280;28584;42.636;23.294;2023-08-06T11:53:05;67539.38;;;-142.31;100.00
42945;BME280;28584;42.636;23.294;2023-08-06T11:55:31;67539.38;;;-142.31;100.00
42945;BME280;28584;42.636;23.294;2023-08-06T11:57:57;67539.38;;;-142.31;100.00
42945;BME280;28584;42.636;23.294;2023-08-06T12:00:24;67539.38;;;-142.31;100.00
42945;BME280;28584;42.636;23.294;2023-08-06T12:02:51;67539.38;;;-142.31;100.00
42945;BME280;28584;42.636;23.294;2023-08-06T12:05:29;67539.38;;;-142.31;100.00
42945;BME280;28584;42.636;23.294;2023-08-06T12:07:56;67539.38;;;-142.31;100.00
42945;BME280;28584;42.636;23.294;2023-08-06T12:10:24;67539.38;;;-142.31;100.00
42945;BME280;28584;42.636;23.294;2023-08-06T12:12:50;67539.38;;;-142.31;100.00
42945;BME280;28584;42.636;23.294;2023-08-06T12:15:16;67539.38;;;-142.31;100.00
42945;BME280;28584;42.636;23.294;2023-08-06T12:17:41;67539.38;;;-142.31;100.00
42945;BME280;28584;42.636;23.294;2023-08-06T12:20:08;67539.38;;;-142.31;100.00
42945;BME280;28584;42.636;23.294;2023-08-06T12:22:34;67539.38;;;-142.31;100.00
42945;BME280;28584;42.636;23.294;2023-08-06T12:25:04;67539.38;;;-142.31;100.00